Time;durP1;ratioP1;P1;durP2;ratioP2;P2;SDS_P1;SDS_P2;PMS_P1;PMS_P2;Temp;Humidity;BMP_temperature;BMP_pressure;BME280_temperature;BME280_humidity;BME280_pressure;Samples;Min_cycle;Max_cycle;Signal;HPM_P1;HPM_P2
2020/12/31 00:00:49;;;;;;;42.95;24.85;;;3.60;93.50;;;;;;5092196;28;20519;-50
2020/12/31 00:03:15;;;;;;;41.70;24.38;;;3.60;93.50;;;;;;5092997;28;20047;-49
2020/12/31 00:05:40;;;;;;;38.70;24.77;;;3.60;93.60;;;;;;5093344;28;20093;-50
2020/12/31 00:08:06;;;;;;;43.55;24.75;;;3.50;93.60;;;;;;5093796;28;20070;-51
2020/12/31 00:10:32;;;;;;;41.78;24.90;;;3.50;93.60;;;;;;5093042;28;20492;-51
2020/12/31 00:12:58;;;;;;;35.63;24.02;;;3.60;93.60;;;;;;5092518;28;20059;-52
2020/12/31 00:15:24;;;;;;;39.83;24.33;;;3.60;93.50;;;;;;5092862;28;20043;-51
2020/12/31 00:17:50;;;;;;;40.40;24.88;;;3.60;93.60;;;;;;5091933;28;20101;-49
2020/12/31 00:20:16;;;;;;;37.33;23.00;;;3.60;93.60;;;;;;5093071;28;20044;-49
2020/12/31 00:22:41;;;;;;;43.42;24.50;;;3.60;93.60;;;;;;5093188;28;20497;-50
2020/12/31 00:25:11;;;;;;;38.60;23.17;;;3.60;93.80;;;;;;5094554;28;20085;-50
2020/12/31 00:27:37;;;;;;;38.30;22.63;;;3.70;93.60;;;;;;5093991;28;20122;-49
2020/12/31 00:30:16;;;;;;;39.30;23.23;;;3.60;93.50;;;;;;5093096;28;20461;-49
2020/12/31 00:32:42;;;;;;;37.80;22.13;;;3.70;93.50;;;;;;5092694;28;20054;-50
2020/12/31 00:35:07;;;;;;;37.72;23.83;;;3.60;93.50;;;;;;5093065;28;20131;-51
2020/12/31 00:37:34;;;;;;;34.72;23.00;;;3.60;93.60;;;;;;5092547;28;20136;-50
2020/12/31 00:40:01;;;;;;;39.03;22.45;;;3.70;93.60;;;;;;5092677;28;20427;-51
2020/12/31 00:42:27;;;;;;;34.33;22.23;;;3.70;93.50;;;;;;5092923;28;20050;-49
2020/12/31 00:44:53;;;;;;;36.83;23.65;;;3.70;93.60;;;;;;5093482;28;20050;-52
2020/12/31 00:47:19;;;;;;;39.17;22.45;;;3.60;93.60;;;;;;5086446;28;20135;-51
2020/12/31 00:49:45;;;;;;;36.22;22.95;;;3.60;93.50;;;;;;5086420;28;20044;-50
2020/12/31 00:52:11;;;;;;;38.38;22.83;;;3.60;93.70;;;;;;5092200;28;20047;-50
2020/12/31 00:54:36;;;;;;;41.80;22.83;;;3.70;93.50;;;;;;5094457;28;20032;-49
2020/12/31 00:57:02;;;;;;;38.35;21.85;;;3.70;93.50;;;;;;5093991;28;20071;-50
2020/12/31 00:59:28;;;;;;;41.35;23.30;;;3.60;93.50;;;;;;5094116;28;20393;-51
2020/12/31 01:01:54;;;;;;;39.72;23.17;;;3.70;93.60;;;;;;5094339;28;20093;-50
2020/12/31 01:04:19;;;;;;;38.05;22.38;;;3.70;93.60;;;;;;5091835;28;20444;-51
2020/12/31 01:06:45;;;;;;;41.22;24.00;;;3.70;93.90;;;;;;5090175;28;20040;-50
2020/12/31 01:09:10;;;;;;;43.60;24.42;;;3.60;93.70;;;;;;5094688;28;20036;-49
2020/12/31 01:11:38;;;;;;;37.60;23.60;;;3.60;93.80;;;;;;5092459;28;20036;-50
2020/12/31 01:14:05;;;;;;;36.85;23.17;;;3.60;93.80;;;;;;5093431;28;20054;-50
2020/12/31 01:16:31;;;;;;;42.10;25.00;;;3.60;93.90;;;;;;5095902;28;20036;-51
2020/12/31 01:18:56;;;;;;;40.90;23.67;;;3.60;93.80;;;;;;5093250;28;20134;-50
2020/12/31 01:21:22;;;;;;;41.40;24.00;;;3.60;93.90;;;;;;5094732;28;20067;-50
2020/12/31 01:23:48;;;;;;;38.53;23.52;;;3.50;93.80;;;;;;5093104;28;20032;-50
2020/12/31 01:26:29;;;;;;;41.00;23.98;;;3.50;93.80;;;;;;5094724;28;20089;-51
2020/12/31 01:28:55;;;;;;;39.90;24.60;;;3.50;93.90;;;;;;5093631;28;20077;-51
2020/12/31 01:31:20;;;;;;;42.53;23.35;;;3.50;93.80;;;;;;5094052;28;20227;-53
2020/12/31 01:33:46;;;;;;;38.88;24.20;;;3.50;93.80;;;;;;5094001;28;20040;-51
2020/12/31 01:36:12;;;;;;;40.50;23.85;;;3.50;93.70;;;;;;5091905;28;20381;-50
2020/12/31 01:38:38;;;;;;;39.40;23.70;;;3.50;93.80;;;;;;5095017;28;20072;-49
2020/12/31 01:41:04;;;;;;;42.90;24.60;;;3.50;93.90;;;;;;5094545;28;20048;-51
2020/12/31 01:43:30;;;;;;;39.92;23.33;;;3.50;93.90;;;;;;5091946;28;20036;-50
2020/12/31 01:45:55;;;;;;;40.17;24.80;;;3.60;93.80;;;;;;5093627;28;20052;-51
2020/12/31 01:48:21;;;;;;;37.90;23.83;;;3.60;93.80;;;;;;5091635;28;20043;-51
2020/12/31 01:50:47;;;;;;;43.08;24.08;;;3.50;93.70;;;;;;5088075;28;20040;-50
2020/12/31 01:53:14;;;;;;;41.40;24.25;;;3.50;93.80;;;;;;5091855;28;20102;-50
2020/12/31 01:55:42;;;;;;;37.53;23.23;;;3.50;93.70;;;;;;5091845;28;20044;-49
2020/12/31 01:58:08;;;;;;;44.65;25.90;;;3.50;93.70;;;;;;5093219;28;20058;-47
2020/12/31 02:00:34;;;;;;;42.75;24.88;;;3.40;93.70;;;;;;5091994;28;20112;-48
2020/12/31 02:03:01;;;;;;;42.83;25.48;;;3.40;93.80;;;;;;5090972;28;20068;-50
2020/12/31 02:05:27;;;;;;;40.63;24.90;;;3.40;93.80;;;;;;5091530;28;20064;-48
2020/12/31 02:07:52;;;;;;;43.63;25.13;;;3.50;93.80;;;;;;5091248;28;20072;-50
2020/12/31 02:10:18;;;;;;;39.95;24.90;;;3.50;93.80;;;;;;5092294;28;20039;-48
2020/12/31 02:12:44;;;;;;;41.05;25.02;;;3.50;93.70;;;;;;5090300;28;20173;-48
2020/12/31 02:15:17;;;;;;;43.30;24.80;;;3.50;93.80;;;;;;5091083;28;20408;-48
2020/12/31 02:17:44;;;;;;;43.35;25.02;;;3.50;93.80;;;;;;5092752;28;20048;-47
2020/12/31 02:20:13;;;;;;;45.63;25.50;;;3.50;93.80;;;;;;5091100;28;20039;-50
2020/12/31 02:22:39;;;;;;;39.90;24.50;;;3.50;93.70;;;;;;5090982;28;20115;-51
2020/12/31 02:25:05;;;;;;;45.15;25.65;;;3.50;93.80;;;;;;5088590;28;20038;-49
2020/12/31 02:27:32;;;;;;;43.08;24.85;;;3.50;93.60;;;;;;5090864;28;20129;-49
2020/12/31 02:29:59;;;;;;;40.78;26.40;;;3.50;93.50;;;;;;5091654;28;20032;-50
2020/12/31 02:32:25;;;;;;;41.80;25.48;;;3.50;93.60;;;;;;5091603;28;20052;-48
2020/12/31 02:34:51;;;;;;;43.67;25.05;;;3.40;93.70;;;;;;5083217;28;20032;-50
2020/12/31 02:37:17;;;;;;;43.38;25.40;;;3.40;93.70;;;;;;5091395;28;20044;-48
2020/12/31 02:39:43;;;;;;;41.97;26.45;;;3.50;93.80;;;;;;5092866;28;20044;-51
2020/12/31 02:42:08;;;;;;;44.95;26.55;;;3.50;93.80;;;;;;5068517;28;20497;-47
2020/12/31 02:44:34;;;;;;;43.67;26.83;;;3.40;94.00;;;;;;5091425;28;20047;-48
2020/12/31 02:46:59;;;;;;;44.45;26.58;;;3.50;93.80;;;;;;5090884;28;20511;-48
2020/12/31 02:49:25;;;;;;;41.10;25.70;;;3.40;93.80;;;;;;5093299;28;20048;-49
2020/12/31 02:51:51;;;;;;;43.15;25.90;;;3.40;93.80;;;;;;5084865;28;20048;-48
2020/12/31 02:54:16;;;;;;;43.50;26.80;;;3.40;93.80;;;;;;5090161;28;20102;-47
2020/12/31 02:56:42;;;;;;;44.95;26.65;;;3.50;93.80;;;;;;5092548;28;20037;-48
2020/12/31 02:59:07;;;;;;;44.55;27.00;;;3.50;93.80;;;;;;5090099;28;20036;-48
2020/12/31 03:01:33;;;;;;;43.47;26.08;;;3.50;93.80;;;;;;5092089;28;20381;-49
2020/12/31 03:03:59;;;;;;;39.15;24.00;;;3.50;93.70;;;;;;5089549;28;20059;-49
2020/12/31 03:06:25;;;;;;;43.22;26.02;;;3.50;93.80;;;;;;5090221;28;20501;-47
2020/12/31 03:08:51;;;;;;;40.10;24.42;;;3.50;93.70;;;;;;5092404;28;20044;-47
2020/12/31 03:11:21;;;;;;;42.00;25.15;;;3.60;93.60;;;;;;5090814;28;20054;-51
2020/12/31 03:13:50;;;;;;;44.40;24.55;;;3.50;93.70;;;;;;5084077;28;20044;-51
2020/12/31 03:16:16;;;;;;;38.05;24.52;;;3.50;93.90;;;;;;5092021;28;20050;-47
2020/12/31 03:18:44;;;;;;;40.42;23.52;;;3.50;93.90;;;;;;5089887;28;20111;-48
2020/12/31 03:21:10;;;;;;;36.00;22.42;;;3.50;94.00;;;;;;5091770;28;20127;-48
2020/12/31 03:23:36;;;;;;;37.08;21.63;;;3.50;93.90;;;;;;5090769;28;20036;-47
2020/12/31 03:26:02;;;;;;;32.08;20.90;;;3.50;93.90;;;;;;5089708;28;20082;-50
2020/12/31 03:28:28;;;;;;;33.70;21.42;;;3.50;93.90;;;;;;5090147;28;20036;-50
2020/12/31 03:30:54;;;;;;;33.55;20.42;;;3.50;93.90;;;;;;5092511;28;20089;-51
2020/12/31 03:33:20;;;;;;;33.60;20.92;;;3.50;94.20;;;;;;5092741;28;20246;-47
2020/12/31 03:35:48;;;;;;;35.75;21.67;;;3.60;94.00;;;;;;5094615;28;20050;-50
2020/12/31 03:38:15;;;;;;;31.75;20.35;;;3.60;93.90;;;;;;5090047;28;20036;-48
2020/12/31 03:40:42;;;;;;;36.42;21.35;;;3.60;93.90;;;;;;5093867;28;20040;-50
2020/12/31 03:43:08;;;;;;;34.80;21.38;;;3.60;93.90;;;;;;5088163;28;20035;-48
2020/12/31 03:45:34;;;;;;;36.97;21.20;;;3.60;93.80;;;;;;5090804;28;20105;-48
2020/12/31 03:48:00;;;;;;;35.70;20.20;;;3.60;93.80;;;;;;5091062;28;20506;-52
2020/12/31 03:50:26;;;;;;;34.78;22.25;;;3.60;93.80;;;;;;5091699;28;20135;-48
2020/12/31 03:52:52;;;;;;;35.85;20.50;;;3.60;93.80;;;;;;5093847;28;20066;-48
2020/12/31 03:55:17;;;;;;;35.13;20.13;;;3.70;93.80;;;;;;5094319;28;20039;-48
2020/12/31 03:57:43;;;;;;;37.63;21.92;;;3.60;93.80;;;;;;5095473;28;20040;-49
2020/12/31 04:00:10;;;;;;;34.40;20.98;;;3.70;93.80;;;;;;5095038;28;20061;-47
2020/12/31 04:02:36;;;;;;;34.00;21.75;;;3.70;93.80;;;;;;5093787;28;20139;-48
2020/12/31 04:05:03;;;;;;;36.40;22.60;;;3.70;93.80;;;;;;5094277;28;20516;-48
2020/12/31 04:07:29;;;;;;;35.25;21.85;;;3.70;93.80;;;;;;5093530;28;20185;-49
2020/12/31 04:09:54;;;;;;;38.20;23.00;;;3.70;93.80;;;;;;5093458;28;20142;-49
2020/12/31 04:12:20;;;;;;;36.35;22.13;;;3.70;93.90;;;;;;5093358;28;20036;-48
2020/12/31 04:14:46;;;;;;;38.78;22.35;;;3.70;93.90;;;;;;5092466;28;20183;-48
2020/12/31 04:17:11;;;;;;;40.20;23.80;;;3.70;93.90;;;;;;5092929;28;20058;-48
2020/12/31 04:19:41;;;;;;;39.60;23.23;;;3.80;93.90;;;;;;5093861;28;20127;-50
2020/12/31 04:22:07;;;;;;;41.60;25.85;;;3.80;93.90;;;;;;5093166;28;20048;-48
2020/12/31 04:24:33;;;;;;;44.10;25.38;;;3.80;93.80;;;;;;5093693;28;20505;-51
2020/12/31 04:26:59;;;;;;;38.83;24.55;;;3.80;93.90;;;;;;5094052;28;20070;-50
2020/12/31 04:29:25;;;;;;;39.40;25.10;;;3.80;93.90;;;;;;5092259;28;20520;-50
2020/12/31 04:31:51;;;;;;;41.42;25.77;;;3.80;93.80;;;;;;5092924;28;20104;-48
2020/12/31 04:34:16;;;;;;;42.47;25.45;;;3.80;93.90;;;;;;5092486;28;20182;-49
2020/12/31 04:36:42;;;;;;;43.00;26.70;;;3.90;93.90;;;;;;5091991;28;20040;-48
2020/12/31 04:39:10;;;;;;;51.95;26.95;;;3.80;93.90;;;;;;5092764;28;20036;-48
2020/12/31 04:41:36;;;;;;;47.90;27.10;;;3.90;93.90;;;;;;5084362;28;20055;-49
2020/12/31 04:44:02;;;;;;;43.30;26.52;;;3.90;93.80;;;;;;5093854;28;20049;-51
2020/12/31 04:46:30;;;;;;;45.60;27.50;;;3.90;93.90;;;;;;5094047;28;20040;-50
2020/12/31 04:49:09;;;;;;;46.00;28.42;;;3.90;93.90;;;;;;5079678;28;20139;-51
2020/12/31 04:51:36;;;;;;;45.20;28.55;;;3.90;93.90;;;;;;5087522;28;20040;-49
2020/12/31 04:54:06;;;;;;;45.33;27.50;;;3.90;93.90;;;;;;5094577;28;20100;-51
2020/12/31 04:56:35;;;;;;;44.78;27.35;;;3.90;93.90;;;;;;5092607;28;20036;-49
2020/12/31 04:59:02;;;;;;;42.60;26.48;;;3.90;93.90;;;;;;5077216;28;20131;-51
2020/12/31 05:01:28;;;;;;;42.83;26.95;;;3.90;93.90;;;;;;5093949;28;20032;-51
2020/12/31 05:03:54;;;;;;;45.95;27.70;;;3.90;93.90;;;;;;5068592;28;20422;-48
2020/12/31 05:06:23;;;;;;;45.55;26.23;;;3.90;94.00;;;;;;5093339;28;20119;-49
2020/12/31 05:08:51;;;;;;;41.38;25.40;;;4.00;94.00;;;;;;5096552;28;20032;-48
2020/12/31 05:11:18;;;;;;;40.83;24.63;;;4.00;93.90;;;;;;5057445;28;20424;-48
2020/12/31 05:13:44;;;;;;;39.40;24.17;;;4.00;93.80;;;;;;5091231;28;20036;-48
2020/12/31 05:16:10;;;;;;;41.28;24.70;;;3.90;93.80;;;;;;5095909;28;20131;-49
2020/12/31 05:18:36;;;;;;;40.08;25.17;;;3.90;93.90;;;;;;5092652;28;20111;-51
2020/12/31 05:21:12;;;;;;;38.25;23.55;;;3.90;93.90;;;;;;5092913;28;20043;-51
2020/12/31 05:23:38;;;;;;;36.00;22.17;;;3.90;93.90;;;;;;5095207;28;20028;-47
2020/12/31 05:26:04;;;;;;;37.25;22.98;;;4.00;93.90;;;;;;5075538;28;20097;-51
2020/12/31 05:28:32;;;;;;;37.72;23.00;;;3.90;93.80;;;;;;5077438;28;20048;-48
2020/12/31 05:31:10;;;;;;;35.97;23.15;;;3.90;93.80;;;;;;5092173;28;20097;-50
2020/12/31 05:33:40;;;;;;;37.00;22.38;;;3.90;93.80;;;;;;5093833;28;20032;-49
2020/12/31 05:36:26;;;;;;;35.53;22.10;;;3.90;93.80;;;;;;5091317;28;20047;-47
2020/12/31 05:39:00;;;;;;;37.10;23.38;;;3.90;93.80;;;;;;5092675;28;20151;-49
2020/12/31 05:41:27;;;;;;;38.13;23.02;;;3.90;93.80;;;;;;5085340;28;20289;-51
2020/12/31 05:43:54;;;;;;;39.00;22.95;;;3.90;93.80;;;;;;5089580;28;20078;-48
2020/12/31 05:46:20;;;;;;;36.20;22.05;;;3.80;93.80;;;;;;5091314;28;20162;-50
2020/12/31 05:48:55;;;;;;;34.88;22.35;;;3.90;93.90;;;;;;5093923;28;20114;-50
2020/12/31 05:51:29;;;;;;;34.72;21.55;;;3.90;93.90;;;;;;5089821;28;20572;-51
2020/12/31 05:54:12;;;;;;;32.90;21.13;;;3.90;93.90;;;;;;5076108;28;20044;-49
2020/12/31 05:56:39;;;;;;;31.05;20.90;;;4.00;93.80;;;;;;5091719;28;20790;-49
2020/12/31 05:59:14;;;;;;;34.55;21.42;;;4.00;93.80;;;;;;5091021;28;20042;-48
2020/12/31 06:01:56;;;;;;;30.30;19.67;;;4.00;93.90;;;;;;5092660;28;20097;-50
2020/12/31 06:04:46;;;;;;;29.80;18.27;;;4.00;93.80;;;;;;5107742;28;20040;-53
2020/12/31 06:07:29;;;;;;;26.15;17.27;;;4.00;93.70;;;;;;5094430;28;20060;-49
2020/12/31 06:10:03;;;;;;;26.98;17.27;;;4.00;93.60;;;;;;5091114;28;20451;-53
2020/12/31 06:12:46;;;;;;;25.48;15.25;;;4.00;93.40;;;;;;5093260;28;20048;-51
2020/12/31 06:15:19;;;;;;;25.00;15.73;;;4.00;93.40;;;;;;5069482;28;20473;-49
2020/12/31 06:17:46;;;;;;;;;;;4.00;93.40;;;;;;5091433;28;20066;-52
2020/12/31 06:20:13;;;;;;;22.92;14.23;;;4.00;93.20;;;;;;5091615;28;19915;-51
2020/12/31 06:22:59;;;;;;;23.40;14.73;;;3.90;93.40;;;;;;5079010;28;20040;-48
2020/12/31 06:25:35;;;;;;;24.30;14.15;;;3.90;93.30;;;;;;5090096;28;20489;-48
2020/12/31 06:28:08;;;;;;;22.80;14.25;;;3.90;93.40;;;;;;5090153;28;20054;-48
2020/12/31 06:30:35;;;;;;;21.08;13.98;;;3.90;93.70;;;;;;5088565;28;20547;-49
2020/12/31 06:33:06;;;;;;;20.50;13.05;;;3.90;93.40;;;;;;5081887;28;20822;-50
2020/12/31 06:35:33;;;;;;;21.67;14.38;;;3.90;93.40;;;;;;5088471;28;20451;-48
2020/12/31 06:37:59;;;;;;;20.17;12.73;;;3.90;93.30;;;;;;5089774;28;20096;-47
2020/12/31 06:40:30;;;;;;;21.60;13.18;;;3.90;93.40;;;;;;5088625;28;20460;-52
2020/12/31 06:43:07;;;;;;;20.98;13.35;;;3.90;93.40;;;;;;5089288;28;20400;-50
2020/12/31 06:45:37;;;;;;;21.15;13.93;;;3.80;93.30;;;;;;5087966;28;20390;-51
2020/12/31 06:48:23;;;;;;;23.10;14.02;;;3.80;93.50;;;;;;5089906;28;20040;-50
2020/12/31 06:50:54;;;;;;;22.42;14.55;;;3.90;93.60;;;;;;5087416;28;20470;-48
2020/12/31 06:53:47;;;;;;;24.30;15.13;;;3.80;93.50;;;;;;5089499;28;20558;-48
2020/12/31 06:56:13;;;;;;;27.65;15.38;;;3.90;93.70;;;;;;5084347;28;20040;-47
2020/12/31 06:58:44;;;;;;;24.00;14.18;;;3.80;93.70;;;;;;5088694;28;20518;-51
2020/12/31 07:01:29;;;;;;;25.73;15.65;;;3.90;93.70;;;;;;5088962;28;20028;-50
2020/12/31 07:03:58;;;;;;;29.52;16.60;;;3.90;93.80;;;;;;5087355;28;20044;-48
2020/12/31 07:06:29;;;;;;;28.65;16.90;;;3.90;93.70;;;;;;5086495;28;20181;-48
2020/12/31 07:09:01;;;;;;;29.88;17.73;;;3.90;93.80;;;;;;5089323;28;20048;-53
2020/12/31 07:11:31;;;;;;;29.92;17.85;;;4.00;93.80;;;;;;5087452;28;20040;-48
2020/12/31 07:13:57;;;;;;;29.58;17.60;;;4.00;93.70;;;;;;5089465;28;20131;-48
2020/12/31 07:16:46;;;;;;;32.53;19.27;;;4.00;93.70;;;;;;5090961;28;20480;-52
2020/12/31 07:19:13;;;;;;;29.90;17.95;;;4.00;93.60;;;;;;5088692;28;20048;-50
2020/12/31 07:21:38;;;;;;;32.30;18.63;;;4.00;93.80;;;;;;5090261;28;20032;-50
2020/12/31 07:24:27;;;;;;;29.45;18.40;;;4.00;93.80;;;;;;5089678;28;20111;-50
2020/12/31 07:26:57;;;;;;;30.10;18.48;;;4.00;93.80;;;;;;5098272;28;20588;-50
2020/12/31 07:29:30;;;;;;;30.92;18.77;;;4.00;93.80;;;;;;5098243;28;20048;-50
2020/12/31 07:31:58;;;;;;;32.90;19.33;;;4.00;93.80;;;;;;5096837;28;20059;-51
2020/12/31 07:34:26;;;;;;;31.75;19.50;;;4.00;93.90;;;;;;5084947;28;20066;-49
2020/12/31 07:37:06;;;;;;;32.00;19.30;;;4.00;93.90;;;;;;5087112;28;20056;-49
2020/12/31 07:39:34;;;;;;;32.90;19.73;;;4.00;93.80;;;;;;5081405;28;20127;-51
2020/12/31 07:42:10;;;;;;;33.75;20.55;;;4.00;93.80;;;;;;5094134;28;20404;-50
2020/12/31 07:44:50;;;;;;;32.28;19.50;;;4.10;93.80;;;;;;5081414;28;20064;-47
2020/12/31 07:47:18;;;;;;;36.90;19.55;;;4.10;93.70;;;;;;5093269;28;20515;-50
2020/12/31 07:49:48;;;;;;;32.72;19.52;;;4.10;94.00;;;;;;5094544;28;20484;-49
2020/12/31 07:52:16;;;;;;;35.72;21.65;;;4.10;93.80;;;;;;5063790;28;20063;-53
2020/12/31 07:54:42;;;;;;;33.08;19.67;;;4.10;93.80;;;;;;5092863;28;20173;-48
2020/12/31 07:57:12;;;;;;;33.53;20.48;;;4.10;93.80;;;;;;5094748;28;20056;-52
2020/12/31 07:59:45;;;;;;;39.88;21.13;;;4.10;93.80;;;;;;5094105;28;20044;-51
2020/12/31 08:02:14;;;;;;;33.28;20.85;;;4.10;93.80;;;;;;5093365;28;20040;-51
2020/12/31 08:04:40;;;;;;;34.00;20.35;;;4.10;93.80;;;;;;5094145;28;20028;-50
2020/12/31 08:07:17;;;;;;;36.80;20.70;;;4.10;93.80;;;;;;5094329;28;20052;-49
2020/12/31 08:09:46;;;;;;;34.92;19.85;;;4.10;93.80;;;;;;5047346;28;20488;-49
2020/12/31 08:12:12;;;;;;;38.05;20.45;;;4.10;94.00;;;;;;5093660;28;20044;-50
2020/12/31 08:14:46;;;;;;;35.35;20.85;;;4.10;93.90;;;;;;5081396;28;20056;-52
2020/12/31 08:17:13;;;;;;;35.85;20.98;;;4.10;93.90;;;;;;5085674;28;20044;-52
2020/12/31 08:19:43;;;;;;;37.25;22.25;;;4.10;94.00;;;;;;5086943;28;20048;-49
2020/12/31 08:22:28;;;;;;;36.10;21.50;;;4.10;94.00;;;;;;5093940;28;20044;-49
2020/12/31 08:25:11;;;;;;;34.33;21.48;;;4.10;93.90;;;;;;5093582;28;20044;-52
2020/12/31 08:27:39;;;;;;;32.67;19.58;;;4.20;93.90;;;;;;5085041;28;20089;-48
2020/12/31 08:30:10;;;;;;;34.75;20.98;;;4.10;93.90;;;;;;5093333;28;20052;-49
2020/12/31 08:32:51;;;;;;;32.58;20.60;;;4.20;93.80;;;;;;5092607;28;20043;-51
2020/12/31 08:35:44;;;;;;;34.20;19.95;;;4.20;93.80;;;;;;5092614;28;20056;-51
2020/12/31 08:38:11;;;;;;;;;;;4.20;93.80;;;;;;5092554;28;20044;-52
2020/12/31 08:40:44;;;;;;;35.08;17.92;;;4.20;93.90;;;;;;5092853;28;20264;-50
2020/12/31 08:43:18;;;;;;;31.95;19.77;;;4.20;93.80;;;;;;5092540;28;20040;-50
2020/12/31 08:45:45;;;;;;;31.60;18.65;;;4.20;93.90;;;;;;5092462;28;20051;-52
2020/12/31 08:48:11;;;;;;;322.65;194.70;;;4.10;93.90;;;;;;5092584;28;20519;-49
2020/12/31 08:50:38;;;;;;;145.48;79.63;;;4.20;93.90;;;;;;5092802;28;20032;-48
2020/12/31 08:53:03;;;;;;;35.75;21.70;;;4.20;93.80;;;;;;5092207;28;20039;-50
2020/12/31 08:55:29;;;;;;;115.50;76.28;;;4.20;93.80;;;;;;5092883;28;20046;-50
2020/12/31 08:58:14;;;;;;;322.88;191.35;;;3.90;93.70;;;;;;5092480;28;20043;-52
2020/12/31 09:00:41;;;;;;;644.45;407.02;;;4.20;93.80;;;;;;5092706;28;20044;-50
2020/12/31 09:03:07;;;;;;;291.67;194.05;;;4.20;93.80;;;;;;5079847;28;20032;-48
2020/12/31 09:05:33;;;;;;;164.45;106.22;;;4.20;93.80;;;;;;5092719;28;20048;-49
2020/12/31 09:08:06;;;;;;;72.30;44.40;;;4.20;93.90;;;;;;5092428;28;20040;-52
2020/12/31 09:10:35;;;;;;;102.55;61.72;;;4.20;93.90;;;;;;5071307;28;20455;-54
2020/12/31 09:13:02;;;;;;;157.15;102.50;;;4.20;93.90;;;;;;5091971;28;20036;-50
2020/12/31 09:15:28;;;;;;;79.47;54.47;;;4.20;93.90;;;;;;5093103;28;20065;-51
2020/12/31 09:17:54;;;;;;;204.07;147.55;;;4.20;93.90;;;;;;5093114;28;20070;-50
2020/12/31 09:20:27;;;;;;;34.75;20.92;;;4.30;93.90;;;;;;5073599;28;20044;-53
2020/12/31 09:23:09;;;;;;;28.70;17.80;;;4.30;93.90;;;;;;5081413;28;20408;-49
2020/12/31 09:25:34;;;;;;;34.90;18.98;;;4.30;93.60;;;;;;5090169;28;20043;-54
2020/12/31 09:28:00;;;;;;;29.45;18.80;;;4.30;93.50;;;;;;5091772;28;20046;-51
2020/12/31 09:30:30;;;;;;;31.38;18.50;;;4.20;93.50;;;;;;5090775;28;20043;-48
2020/12/31 09:33:01;;;;;;;36.75;22.33;;;4.20;93.60;;;;;;5092512;28;20380;-50
2020/12/31 09:35:28;;;;;;;48.13;22.20;;;4.20;93.70;;;;;;5092064;28;20044;-49
2020/12/31 09:37:59;;;;;;;30.50;18.52;;;4.20;93.80;;;;;;5056571;28;20055;-52
2020/12/31 09:40:25;;;;;;;125.78;71.97;;;4.20;93.70;;;;;;5090916;28;20439;-50
2020/12/31 09:42:51;;;;;;;399.23;273.77;;;4.20;93.60;;;;;;5087120;28;20047;-49
2020/12/31 09:45:17;;;;;;;281.90;202.98;;;4.20;93.70;;;;;;5091335;28;20523;-53
2020/12/31 09:47:43;;;;;;;680.25;479.58;;;4.30;93.90;;;;;;5086467;28;20071;-50
2020/12/31 09:50:10;;;;;;;231.30;158.52;;;4.30;93.70;;;;;;5086430;28;20063;-52
2020/12/31 09:52:38;;;;;;;76.97;55.28;;;4.20;93.60;;;;;;5090196;28;20036;-51
2020/12/31 09:55:06;;;;;;;308.08;228.27;;;4.30;93.60;;;;;;5090482;28;20032;-50
2020/12/31 09:57:32;;;;;;;33.95;21.63;;;4.20;93.60;;;;;;5091442;28;20079;-52
2020/12/31 09:59:58;;;;;;;29.80;18.17;;;4.20;93.70;;;;;;5091752;28;20468;-48
2020/12/31 10:02:26;;;;;;;29.98;18.92;;;4.20;93.70;;;;;;5090830;28;20350;-48
2020/12/31 10:04:52;;;;;;;121.28;82.55;;;4.30;93.70;;;;;;5090818;28;20040;-51
2020/12/31 10:07:18;;;;;;;76.35;47.97;;;4.30;93.70;;;;;;5091087;28;20047;-51
2020/12/31 10:09:44;;;;;;;239.85;158.20;;;4.30;93.70;;;;;;5092516;28;20039;-47
2020/12/31 10:12:15;;;;;;;517.90;388.13;;;4.20;93.80;;;;;;5091038;28;20048;-53
2020/12/31 10:14:45;;;;;;;165.38;112.07;;;4.30;93.80;;;;;;5090604;28;20085;-53
2020/12/31 10:17:13;;;;;;;133.73;87.13;;;4.30;93.70;;;;;;5073594;28;20125;-50
2020/12/31 10:19:39;;;;;;;255.77;134.13;;;4.20;93.80;;;;;;5092268;28;20059;-49
2020/12/31 10:22:10;;;;;;;190.27;96.45;;;4.30;93.80;;;;;;5090352;28;20051;-50
2020/12/31 10:24:36;;;;;;;552.83;394.77;;;4.30;93.70;;;;;;5091138;28;20036;-49
2020/12/31 10:27:02;;;;;;;533.90;429.75;;;4.30;93.70;;;;;;5092487;28;20093;-51
2020/12/31 10:29:28;;;;;;;235.15;138.10;;;4.30;93.80;;;;;;5091800;28;20036;-50
2020/12/31 10:31:58;;;;;;;155.70;84.05;;;4.30;93.70;;;;;;5091731;28;20100;-51
2020/12/31 10:34:24;;;;;;;54.05;37.67;;;4.40;93.70;;;;;;5091164;28;20173;-49
2020/12/31 10:36:53;;;;;;;65.22;37.83;;;4.40;93.70;;;;;;5090360;28;20044;-48
2020/12/31 10:39:19;;;;;;;96.18;64.05;;;4.40;93.70;;;;;;5090811;28;20036;-50
2020/12/31 10:41:46;;;;;;;61.47;42.40;;;4.40;93.80;;;;;;5091759;28;20048;-49
2020/12/31 10:44:16;;;;;;;40.42;25.88;;;4.40;93.70;;;;;;5088967;28;20032;-51
2020/12/31 10:46:42;;;;;;;61.17;39.55;;;4.50;93.70;;;;;;5090098;28;20120;-48
2020/12/31 10:49:10;;;;;;;392.95;257.77;;;4.50;93.70;;;;;;5087713;28;20043;-51
2020/12/31 10:51:37;;;;;;;447.15;297.48;;;4.40;93.60;;;;;;5088859;28;20040;-48
2020/12/31 10:54:03;;;;;;;476.40;287.35;;;4.50;93.60;;;;;;5073170;28;20042;-48
2020/12/31 10:56:29;;;;;;;263.27;122.05;;;4.50;93.50;;;;;;5091118;28;20123;-48
2020/12/31 10:58:55;;;;;;;518.78;403.20;;;4.50;93.60;;;;;;5091759;28;20036;-48
2020/12/31 11:01:21;;;;;;;651.53;545.40;;;4.40;93.60;;;;;;5093763;28;20036;-48
2020/12/31 11:03:47;;;;;;;180.38;123.28;;;4.40;93.60;;;;;;5094849;28;20066;-53
2020/12/31 11:06:24;;;;;;;55.42;35.40;;;4.40;93.70;;;;;;5095435;28;20619;-49
2020/12/31 11:08:50;;;;;;;463.02;336.08;;;4.40;93.70;;;;;;5105225;28;20134;-49
2020/12/31 11:11:19;;;;;;;370.55;267.17;;;4.40;93.70;;;;;;5087084;28;20130;-48
2020/12/31 11:13:46;;;;;;;655.40;511.63;;;4.50;93.60;;;;;;5083223;28;20161;-48
2020/12/31 11:16:12;;;;;;;654.75;490.95;;;4.50;93.60;;;;;;5089760;28;20060;-49
2020/12/31 11:18:39;;;;;;;522.85;304.13;;;4.50;93.60;;;;;;5092963;28;20040;-48
2020/12/31 11:21:06;;;;;;;184.75;110.22;;;4.50;93.60;;;;;;5095205;28;20047;-50
2020/12/31 11:23:31;;;;;;;204.05;134.32;;;4.50;93.50;;;;;;5093605;28;20040;-49
2020/12/31 11:25:57;;;;;;;105.97;74.88;;;4.60;93.50;;;;;;5094445;28;20040;-47
2020/12/31 11:28:22;;;;;;;97.40;60.40;;;4.60;93.70;;;;;;5094258;28;20411;-49
2020/12/31 11:30:49;;;;;;;229.98;150.02;;;4.60;93.50;;;;;;5094624;28;20039;-50
2020/12/31 11:33:15;;;;;;;283.42;175.05;;;4.60;93.50;;;;;;5075378;28;20048;-50
2020/12/31 11:35:40;;;;;;;141.30;78.55;;;4.70;93.50;;;;;;5061591;28;20040;-47
2020/12/31 11:38:06;;;;;;;81.88;62.03;;;4.70;93.50;;;;;;5093867;28;20093;-49
2020/12/31 11:40:32;;;;;;;31.30;18.63;;;4.70;93.40;;;;;;5094630;28;20048;-47
2020/12/31 11:42:58;;;;;;;27.00;16.42;;;4.80;93.40;;;;;;5093977;28;20396;-51
2020/12/31 11:45:24;;;;;;;27.85;16.90;;;4.70;93.40;;;;;;5093824;28;20505;-48
2020/12/31 11:47:52;;;;;;;25.65;16.70;;;4.80;93.40;;;;;;5093724;28;20051;-47
2020/12/31 11:50:18;;;;;;;25.02;16.52;;;4.90;93.30;;;;;;5094097;28;20032;-49
2020/12/31 11:52:47;;;;;;;27.08;16.90;;;4.80;93.10;;;;;;5093217;28;20127;-48
2020/12/31 11:55:13;;;;;;;25.17;16.58;;;4.90;93.20;;;;;;5092956;28;20480;-51
2020/12/31 11:57:39;;;;;;;27.08;17.20;;;4.80;93.20;;;;;;5093637;28;20188;-46
2020/12/31 12:00:05;;;;;;;28.60;17.38;;;4.90;93.10;;;;;;5093370;28;20032;-47
2020/12/31 12:02:31;;;;;;;26.27;18.48;;;4.90;93.10;;;;;;5093415;28;20481;-47
2020/12/31 12:04:56;;;;;;;29.70;18.02;;;4.90;93.10;;;;;;5093225;28;20028;-47
2020/12/31 12:07:26;;;;;;;29.55;19.45;;;5.00;93.10;;;;;;5094079;28;20092;-47
2020/12/31 12:09:52;;;;;;;28.90;18.75;;;5.00;93.10;;;;;;5092904;28;20055;-49
2020/12/31 12:12:19;;;;;;;221.00;113.40;;;5.00;93.10;;;;;;5092242;28;20032;-47
2020/12/31 12:14:45;;;;;;;66.05;45.80;;;5.00;93.00;;;;;;5093491;28;20040;-48
2020/12/31 12:17:17;;;;;;;101.40;62.78;;;5.00;93.00;;;;;;5093763;28;20032;-51
2020/12/31 12:19:42;;;;;;;254.43;200.23;;;5.00;93.00;;;;;;5094563;28;20046;-50
2020/12/31 12:22:08;;;;;;;427.15;341.67;;;5.00;92.80;;;;;;5092304;28;20044;-48
2020/12/31 12:24:34;;;;;;;268.23;185.10;;;5.00;92.80;;;;;;5092365;28;20050;-48
2020/12/31 12:26:59;;;;;;;236.68;175.73;;;5.10;92.90;;;;;;5092040;28;20138;-48
2020/12/31 12:29:25;;;;;;;130.48;88.70;;;5.10;92.80;;;;;;5093416;28;20098;-48
2020/12/31 12:31:54;;;;;;;1061.10;717.00;;;5.10;92.70;;;;;;5093177;28;20562;-50
2020/12/31 12:34:22;;;;;;;138.18;93.55;;;5.00;92.70;;;;;;5092583;28;20372;-48
2020/12/31 12:36:52;;;;;;;105.43;74.13;;;5.00;92.70;;;;;;5093668;28;20110;-47
2020/12/31 12:39:19;;;;;;;36.67;25.35;;;5.00;92.70;;;;;;5056263;28;20036;-50